Flight Track Log - Related Links

Times and Time Zones

All times are in EDT time to prevent confusion due to time zone crossing. See the SKW5564 flight status page for this flight to view local times or setup timezone preferences in your user account.


Time Position Orientation Groundspeed Altitude Reporting Facility
EDT Latitude Longitude Course Direction KTS MPH feet Rate Location/Type
Fri 06:35:00 PM 39.8667 -104.1697 90° East  Level FlightAware Approximate
Fri 06:36:00 PM 39.8667 -104.0036 90° East  Level FlightAware Approximate
Fri 06:37:00 PM 39.8667 -103.8376 90° East  Level FlightAware Approximate
Fri 06:38:00 PM 39.8870 -103.6762 85° East  Level FlightAware Approximate
Fri 06:39:00 PM 39.8973 -103.5106 85° East  Level FlightAware Approximate
Fri 06:40:00 PM 39.9128 -103.3457 82° East  Level FlightAware Approximate
Fri 06:41:00 PM 39.9301 -103.1811 82° East  Level FlightAware Approximate
Fri 06:42:00 PM 39.9491 -103.0167 81° East  Level FlightAware Approximate
Fri 06:43:00 PM 39.9685 -102.8523 81° East  Level FlightAware Approximate
Fri 06:44:00 PM 39.9879 -102.6879 82° East  Level FlightAware Approximate
Fri 06:45:00 PM 40.0045 -102.5230 82° East  Level FlightAware Approximate
Fri 06:46:00 PM 40.0219 -102.3581 81° East  Level FlightAware Approximate
Fri 06:47:00 PM 40.0372 -102.1934 78° East  Level FlightAware Approximate
Fri 06:48:00 PM 40.0643 -102.0307 78° East  Level FlightAware Approximate
Fri 06:49:00 PM 40.0689 -101.8647 81° East  Level FlightAware Approximate
Fri 06:50:00 PM 40.0883 -101.7001 81° East  Level FlightAware Approximate
Fri 06:51:00 PM 40.1047 -101.5349 85° East  Level FlightAware Approximate
Fri 06:52:00 PM 40.1165 -101.3689 85° East  Level FlightAware Approximate
Fri 06:53:00 PM 40.1435 -101.2060 78° East  Level FlightAware Approximate
Fri 06:54:00 PM 40.1610 -101.0410 83° East  Level FlightAware Approximate
Fri 06:55:00 PM 40.1754 -100.8753 83° East  Level FlightAware Approximate
Fri 06:56:00 PM 40.1894 -100.7094 84° East  Level FlightAware Approximate
Fri 06:57:00 PM 40.2080 -100.5447 75° East  Level FlightAware Approximate
Fri 06:58:00 PM 40.2414 -100.3836 75° East  Level FlightAware Approximate
Fri 06:59:00 PM 40.2745 -100.2223 75° East  Level FlightAware Approximate
Fri 07:00:00 PM 40.3074 -100.0609 75° East  Level FlightAware Approximate
Fri 07:01:00 PM 40.3401 -99.8993 75° East  Level FlightAware Approximate
Fri 07:02:00 PM 40.3725 -99.7375 75° East  Level FlightAware Approximate
Fri 07:03:00 PM 40.4016 -99.5746 78° East  Level FlightAware Approximate
Fri 07:04:00 PM 40.4287 -99.4110 78° East  Level FlightAware Approximate
Fri 07:05:00 PM 40.4569 -99.2489 75° East  Level FlightAware Approximate
Fri 07:06:00 PM 40.4916 -99.0877 74° East  Level FlightAware Approximate
Fri 07:07:00 PM 40.5184 -98.9239 76° East  Level FlightAware Approximate
Fri 07:08:00 PM 40.5480 -98.7608 76° East  Level FlightAware Approximate
Fri 07:09:00 PM 40.5781 -98.5978 74° East  Level FlightAware Approximate
Fri 07:10:00 PM 40.6133 -98.4365 74° East  Level FlightAware Approximate
Fri 07:11:00 PM 40.6482 -98.2750 74° East  Level FlightAware Approximate
Fri 07:12:00 PM 40.6748 -98.1106 78° East  Level FlightAware Approximate
Fri 07:13:00 PM 40.7010 -97.9462 72° East  Level FlightAware Approximate
Fri 07:14:00 PM 40.7385 -97.7856 78° East  Level FlightAware Approximate
Fri 07:15:00 PM 40.7659 -97.6212 78° East  Level FlightAware Approximate
Fri 07:16:00 PM 40.7906 -97.4565 78° East  Level FlightAware Approximate
Fri 07:17:00 PM 40.8172 -97.2922 76° East  Level FlightAware Approximate
Fri 07:18:00 PM 40.8478 -97.1287 76° East  Level FlightAware Approximate
Fri 07:19:00 PM 40.8736 -96.9636 78° East  Level FlightAware Approximate
Fri 07:20:00 PM 40.9000 -96.7999 90° East  Level FlightAware Approximate
Fri 07:21:00 PM 40.8500 -96.7500 180° South  Level FlightAware Approximate
Fri 07:22:00 PM 40.8509 -96.7591 180° South  Level Estimated
Fri 07:23:00 PM 40.8500 -96.7500 180° South  Level FlightAware Approximate
Fri 07:24:00 PM 40.8509 -96.7591 180° South  Level Estimated
Fri 07:25:00 PM 40.8500 -96.7500 180° South  Level FlightAware Approximate
Fri 07:26:00 PM 40.8509 -96.7591 180° South  Level Estimated
Fri 07:27:00 PM 40.8500 -96.7500 180° South  Level FlightAware Approximate
Fri 07:28:00 PM 40.8509 -96.7591 180° South  Level Estimated
Fri 07:29:00 PM 40.8500 -96.7500 180° South  Level FlightAware Approximate
Fri 07:30:00 PM 40.8509 -96.7591 180° South  Level Estimated
Fri 07:31:00 PM 40.8500 -96.7500 180° South  Level FlightAware Approximate
Fri 07:32:00 PM 40.8509 -96.7591 180° South  Level Estimated
Fri 07:33:00 PM 40.8500 -96.7500 180° South  Level FlightAware Approximate
Fri 07:34:00 PM 40.8509 -96.7591 180° South  Level Estimated
Fri 07:35:00 PM 40.8500 -96.7500 180° South  Level FlightAware Approximate

Login

Don't have an account? Register now (free) for customized features, flight alerts, and more!